Time;durP1;ratioP1;P1;durP2;ratioP2;P2;SDS_P1;SDS_P2;PMS_P1;PMS_P2;Temp;Humidity;BMP_temperature;BMP_pressure;BME280_temperature;BME280_humidity;BME280_pressure;Samples;Min_cycle;Max_cycle;Signal;HPM_P1;HPM_P2
2021/07/28 00:02:20;;;;;;;6.32;5.72;;;;;;;23.67;71.57;101238.03;5045008;27;102066;-50
2021/07/28 00:04:47;;;;;;;6.50;5.45;;;;;;;23.66;71.28;101233.63;5048639;27;102268;-50
2021/07/28 00:07:13;;;;;;;7.20;6.15;;;;;;;23.66;71.15;101250.28;5050865;27;103480;-50
2021/07/28 00:09:40;;;;;;;6.07;5.47;;;;;;;23.66;71.46;101241.97;5048279;27;102206;-50
2021/07/28 00:12:07;;;;;;;6.30;5.70;;;;;;;23.65;71.20;101237.53;5049284;27;102562;-51
2021/07/28 00:14:35;;;;;;;5.72;5.22;;;;;;;23.67;71.55;101246.38;5051787;27;102506;-51
2021/07/28 00:17:03;;;;;;;5.88;5.38;;;;;;;23.67;71.36;101240.81;5048023;27;103459;-51
2021/07/28 00:19:34;;;;;;;5.82;5.22;;;;;;;23.66;71.34;101238.38;5049268;27;102349;-51
2021/07/28 00:24:46;;;;;;;6.30;5.63;;;;;;;23.67;71.36;101231.69;5048175;27;102715;-50
2021/07/28 00:27:12;;;;;;;6.22;5.63;;;;;;;23.66;71.33;101228.06;5047030;27;103912;-50
2021/07/28 00:29:40;;;;;;;5.68;5.18;;;;;;;23.67;71.49;101228.91;5049079;27;102680;-50
2021/07/28 00:32:07;;;;;;;6.30;4.93;;;;;;;23.67;71.15;101229.72;5049025;27;102769;-50
2021/07/28 00:34:33;;;;;;;6.65;5.35;;;;;;;23.67;71.26;101223.34;5052193;27;102500;-50
2021/07/28 00:37:00;;;;;;;6.07;5.47;;;;;;;23.67;71.52;101229.72;5049809;27;102854;-50
2021/07/28 00:39:26;;;;;;;7.03;5.32;;;;;;;23.66;71.73;101227.25;5050616;27;101975;-50
2021/07/28 00:41:53;;;;;;;5.47;5.07;;;;;;;23.66;71.61;101222.50;5051335;27;102423;-51
2021/07/28 00:44:20;;;;;;;5.63;5.13;;;;;;;23.66;71.42;101221.69;5046096;27;102139;-50
2021/07/28 00:46:48;;;;;;;6.20;5.22;;;;;;;23.66;71.19;101216.94;5051605;27;103152;-50
2021/07/28 00:49:14;;;;;;;7.00;4.97;;;;;;;23.65;71.27;101215.31;5055796;27;101713;-50
2021/07/28 00:51:41;;;;;;;5.50;5.00;;;;;;;23.66;71.33;101216.94;5067701;27;102020;-50
2021/07/28 00:54:08;;;;;;;6.07;5.55;;;;;;;23.66;71.27;101224.47;5066694;27;102318;-50
2021/07/28 00:56:35;;;;;;;6.28;5.68;;;;;;;23.65;71.46;101220.06;5054100;27;103881;-51
2021/07/28 00:59:02;;;;;;;5.40;4.90;;;;;;;23.66;71.20;101219.72;5051193;27;102404;-50
2021/07/28 01:01:29;;;;;;;5.65;5.05;;;;;;;23.65;71.36;101218.09;5042791;27;102636;-51
2021/07/28 01:03:58;;;;;;;6.05;5.45;;;;;;;23.66;71.17;101225.28;5055642;27;102659;-51
2021/07/28 01:06:25;;;;;;;5.68;5.18;;;;;;;23.65;71.31;101215.31;5048522;27;104172;-50
2021/07/28 01:08:52;;;;;;;6.13;5.50;;;;;;;23.64;71.49;101208.13;5046804;27;102713;-51
2021/07/28 01:11:25;;;;;;;5.80;5.20;;;;;;;23.65;71.28;101208.94;5052263;27;102556;-53
2021/07/28 01:13:55;;;;;;;6.40;5.10;;;;;;;23.63;71.18;101209.31;5047390;27;102695;-50
2021/07/28 01:16:25;;;;;;;5.93;5.30;;;;;;;23.65;71.37;101203.38;5048032;27;103884;-50
2021/07/28 01:18:52;;;;;;;5.40;5.00;;;;;;;23.65;71.30;101203.38;5048622;27;102747;-50
2021/07/28 01:21:20;;;;;;;5.38;4.90;;;;;;;23.66;71.33;101207.81;5051649;27;103403;-50
2021/07/28 01:23:50;;;;;;;5.50;5.00;;;;;;;23.63;71.23;101206.53;5053124;27;102563;-51
2021/07/28 01:26:18;;;;;;;5.70;5.20;;;;;;;23.64;71.30;101210.91;5047794;27;103918;-50
2021/07/28 01:28:45;;;;;;;6.13;4.95;;;;;;;23.65;71.25;101203.38;5050458;27;102327;-50
2021/07/28 01:31:13;;;;;;;5.30;4.80;;;;;;;23.64;71.22;101208.13;5046521;27;102211;-51
2021/07/28 01:33:42;;;;;;;6.15;4.53;;;;;;;23.65;71.41;101200.63;5051934;27;102047;-50
2021/07/28 01:36:10;;;;;;;5.03;4.60;;;;;;;23.64;71.36;101197.03;5048953;27;104179;-50
2021/07/28 01:38:37;;;;;;;;;;;;;;;23.64;71.42;101202.59;5044255;27;102367;-51
2021/07/28 01:41:06;;;;;;;5.70;5.20;;;;;;;23.64;71.08;101196.22;5043181;27;102395;-51
2021/07/28 01:43:33;;;;;;;5.45;4.95;;;;;;;23.64;71.34;101190.66;5050387;27;102605;-50
2021/07/28 01:46:01;;;;;;;5.60;5.10;;;;;;;23.64;71.20;101197.03;5050696;27;103312;-50
2021/07/28 01:48:28;;;;;;;5.43;5.03;;;;;;;23.64;71.19;101196.22;5048283;27;102710;-50
2021/07/28 01:50:55;;;;;;;5.82;4.95;;;;;;;23.63;71.23;101189.84;5048940;27;102239;-50
2021/07/28 01:53:22;;;;;;;5.60;4.63;;;;;;;23.63;71.33;101192.63;5051097;27;102501;-51
2021/07/28 01:55:51;;;;;;;5.07;4.57;;;;;;;23.62;71.54;101191.03;5050396;27;104014;-51
2021/07/28 01:58:19;;;;;;;5.20;4.70;;;;;;;23.62;71.38;101193.81;5050121;27;102889;-52
2021/07/28 02:00:47;;;;;;;5.53;5.03;;;;;;;23.63;71.46;101202.94;5045725;27;102733;-50
2021/07/28 02:03:13;;;;;;;5.55;5.05;;;;;;;23.63;70.96;101200.97;5040821;27;102142;-51
2021/07/28 02:05:42;;;;;;;5.45;4.95;;;;;;;23.63;71.06;101202.94;5049957;27;103930;-50
2021/07/28 02:08:10;;;;;;;7.05;5.20;;;;;;;23.62;71.11;101202.13;5049697;27;102135;-50
2021/07/28 02:10:38;;;;;;;5.38;4.88;;;;;;;23.62;71.21;101202.13;5039394;27;102155;-50
2021/07/28 02:13:06;;;;;;;4.95;4.55;;;;;;;23.62;71.01;101199.34;5048372;27;102834;-51
2021/07/28 02:15:35;;;;;;;6.03;4.80;;;;;;;23.62;71.14;101204.91;5046897;27;104013;-50
2021/07/28 02:18:04;;;;;;;5.05;4.55;;;;;;;23.63;71.28;101203.75;5051560;27;102228;-50
2021/07/28 02:20:32;;;;;;;4.85;4.45;;;;;;;23.62;71.10;101204.91;5049256;27;102413;-50
2021/07/28 02:22:59;;;;;;;5.27;4.80;;;;;;;23.62;70.81;101201.31;5048466;27;103208;-50
2021/07/28 02:25:26;;;;;;;5.40;4.90;;;;;;;23.62;70.63;101207.69;5045874;27;103856;-50
2021/07/28 02:27:53;;;;;;;5.35;4.53;;;;;;;23.62;71.02;101210.47;5043545;27;102008;-50
2021/07/28 02:30:20;;;;;;;5.03;4.63;;;;;;;23.61;70.83;101211.63;5046682;27;102105;-50
2021/07/28 02:32:48;;;;;;;5.50;5.00;;;;;;;23.62;70.82;101213.25;5040805;27;102422;-50
2021/07/28 02:35:15;;;;;;;4.93;4.53;;;;;;;23.61;70.89;101214.38;5042046;27;103614;-51
2021/07/28 02:37:43;;;;;;;5.38;4.88;;;;;;;23.60;70.94;101212.78;5049165;27;102312;-50
2021/07/28 02:40:12;;;;;;;5.28;4.88;;;;;;;23.61;71.22;101208.03;5042087;27;102418;-50
2021/07/28 02:42:39;;;;;;;5.13;4.70;;;;;;;23.60;71.12;101207.22;5048187;27;102442;-50
2021/07/28 02:45:06;;;;;;;4.93;4.53;;;;;;;23.61;70.97;101208.84;5042068;27;103568;-50
2021/07/28 02:47:33;;;;;;;5.10;4.70;;;;;;;23.61;71.23;101208.84;5036632;27;101954;-50
2021/07/28 02:50:02;;;;;;;4.75;4.35;;;;;;;23.61;70.99;101206.06;5033396;27;102612;-50
2021/07/28 02:52:28;;;;;;;5.93;5.32;;;;;;;23.60;71.18;101207.22;5056275;27;102334;-50
2021/07/28 02:54:55;;;;;;;5.97;4.63;;;;;;;23.59;70.84;101205.59;5045618;27;103893;-50
2021/07/28 02:57:21;;;;;;;6.32;4.85;;;;;;;23.60;71.10;101200.84;5046998;27;102079;-50
2021/07/28 02:59:48;;;;;;;5.03;4.63;;;;;;;23.60;70.88;101196.09;5045389;27;102243;-50
2021/07/28 03:02:15;;;;;;;5.63;5.07;;;;;;;23.60;71.17;101201.66;5049032;27;102256;-50
2021/07/28 03:04:41;;;;;;;5.22;4.82;;;;;;;23.60;70.99;101195.31;5047650;27;104026;-50
2021/07/28 03:07:09;;;;;;;5.13;4.72;;;;;;;23.60;70.84;101198.88;5044355;27;102390;-50
2021/07/28 03:09:36;;;;;;;5.30;4.80;;;;;;;23.60;71.03;101196.09;5039050;27;102435;-50
2021/07/28 03:12:03;;;;;;;5.10;4.65;;;;;;;23.60;71.04;101190.56;5039172;27;102254;-51
2021/07/28 03:14:30;;;;;;;4.63;4.22;;;;;;;23.59;70.92;101186.16;5047084;27;103255;-50
2021/07/28 03:16:56;;;;;;;5.88;5.00;;;;;;;23.60;71.23;101187.78;5048384;27;102525;-51
2021/07/28 03:19:23;;;;;;;5.40;4.90;;;;;;;23.60;71.03;101187.78;5048039;27;102419;-50
2021/07/28 03:21:50;;;;;;;5.10;4.68;;;;;;;23.60;71.13;101187.78;5049698;27;102742;-50
2021/07/28 03:24:18;;;;;;;5.32;4.50;;;;;;;23.61;71.18;101186.59;5047510;27;103745;-50
2021/07/28 03:26:45;;;;;;;5.25;4.75;;;;;;;23.60;70.97;101189.75;5040226;27;102224;-50
2021/07/28 03:29:12;;;;;;;5.20;4.80;;;;;;;23.60;70.98;101193.31;5037864;27;102520;-50
2021/07/28 03:31:39;;;;;;;5.15;4.75;;;;;;;23.60;70.95;101193.31;5048799;27;102075;-50
2021/07/28 03:34:06;;;;;;;4.90;4.50;;;;;;;23.59;71.07;101193.69;5045384;27;104147;-50
2021/07/28 03:36:32;;;;;;;4.85;4.45;;;;;;;23.59;71.55;101188.94;5043301;27;103317;-50
2021/07/28 03:38:59;;;;;;;4.90;4.50;;;;;;;23.58;71.62;101195.63;5045043;27;103569;-50
2021/07/28 03:41:27;;;;;;;5.07;4.57;;;;;;;23.59;71.40;101188.94;5050888;27;102434;-50
2021/07/28 03:43:54;;;;;;;4.90;4.40;;;;;;;23.60;71.57;101196.09;5045754;27;103894;-51
2021/07/28 03:46:20;;;;;;;4.43;4.03;;;;;;;23.61;71.52;101191.34;5049835;27;102390;-51
2021/07/28 03:48:47;;;;;;;4.72;4.32;;;;;;;23.58;71.49;101178.97;5033790;27;102542;-51
2021/07/28 03:51:13;;;;;;;4.30;4.00;;;;;;;23.59;71.80;101182.56;5034997;27;102748;-55
2021/07/28 03:53:40;;;;;;;4.80;4.40;;;;;;;23.58;71.66;101194.81;5055813;27;103991;-50
2021/07/28 03:56:07;;;;;;;4.75;4.30;;;;;;;23.59;71.69;101183.38;5046166;27;102499;-50
2021/07/28 03:58:35;;;;;;;5.30;4.80;;;;;;;23.58;71.51;101186.50;5042018;27;102425;-50
2021/07/28 04:01:02;;;;;;;4.80;4.40;;;;;;;23.60;71.32;101185.00;5047998;27;102360;-51
2021/07/28 04:03:28;;;;;;;4.55;4.10;;;;;;;23.60;71.57;101182.22;5032338;27;103687;-50
2021/07/28 04:05:55;;;;;;;4.15;3.85;;;;;;;23.59;71.45;101177.81;5056461;27;102152;-50
2021/07/28 04:08:21;;;;;;;4.63;4.22;;;;;;;23.59;71.58;101185.34;5043838;27;103399;-50
2021/07/28 04:10:49;;;;;;;4.00;3.70;;;;;;;23.61;71.56;101181.06;5045061;27;102361;-50
2021/07/28 04:13:15;;;;;;;4.53;4.13;;;;;;;23.61;71.78;101181.06;5038503;27;103928;-50
2021/07/28 04:15:43;;;;;;;4.30;4.00;;;;;;;23.61;71.67;101175.50;5048475;27;102195;-51
2021/07/28 04:18:10;;;;;;;4.82;4.38;;;;;;;23.61;71.82;101181.06;5047858;27;102264;-50
2021/07/28 04:20:37;;;;;;;5.07;4.45;;;;;;;23.62;71.52;101182.69;5050956;27;102435;-51
2021/07/28 04:23:04;;;;;;;4.80;4.40;;;;;;;23.63;71.63;101180.72;5045935;27;104042;-50
2021/07/28 04:25:30;;;;;;;4.70;4.30;;;;;;;23.62;71.69;101168.78;5046296;27;104331;-50
2021/07/28 04:27:57;;;;;;;4.50;4.10;;;;;;;23.62;71.79;101177.13;5051909;27;102114;-50
2021/07/28 04:30:24;;;;;;;4.47;4.18;;;;;;;23.64;71.91;101180.34;5047274;27;102615;-50
2021/07/28 04:32:51;;;;;;;4.00;3.70;;;;;;;23.63;71.99;101173.19;5047986;27;103780;-52
2021/07/28 04:35:18;;;;;;;4.53;4.22;;;;;;;23.64;71.78;101172.03;5048911;27;102322;-50
2021/07/28 04:37:44;;;;;;;4.43;4.03;;;;;;;23.64;71.86;101180.34;5045702;27;102610;-50
2021/07/28 04:40:13;;;;;;;4.60;4.25;;;;;;;23.64;71.70;101174.81;5046891;27;102343;-50
2021/07/28 04:42:40;;;;;;;5.17;3.93;;;;;;;23.65;71.67;101178.38;5044921;27;104129;-52
2021/07/28 04:45:07;;;;;;;4.90;4.05;;;;;;;23.66;71.80;101177.25;5041172;27;103143;-50
2021/07/28 04:47:34;;;;;;;4.32;3.97;;;;;;;23.64;71.96;101183.13;5047469;27;102438;-50
2021/07/28 04:50:03;;;;;;;4.60;4.20;;;;;;;23.65;71.87;101173.63;5047128;27;102283;-50
2021/07/28 04:52:29;;;;;;;;;;;;;;;23.67;71.75;101178.88;5049461;27;103880;-50
2021/07/28 04:54:56;;;;;;;4.43;3.88;;;;;;;23.66;71.55;101178.06;5051303;27;102056;-50
2021/07/28 04:57:22;;;;;;;4.35;3.97;;;;;;;23.67;71.86;101178.88;5041368;27;102695;-50
2021/07/28 04:59:49;;;;;;;5.40;4.38;;;;;;;23.67;72.11;101178.88;5044026;27;103542;-50
2021/07/28 05:02:16;;;;;;;4.88;4.38;;;;;;;23.67;72.10;101174.13;5045486;27;104075;-51
2021/07/28 05:04:43;;;;;;;4.55;4.18;;;;;;;23.67;72.05;101170.56;5047454;27;102447;-50
2021/07/28 05:07:11;;;;;;;4.32;3.92;;;;;;;23.68;71.83;101175.75;5050113;27;102387;-50
2021/07/28 05:09:38;;;;;;;4.93;4.53;;;;;;;23.68;71.81;101166.59;5052166;27;102282;-51
2021/07/28 05:12:07;;;;;;;5.13;4.33;;;;;;;23.69;71.70;101176.56;5044602;27;104240;-51
2021/07/28 05:14:34;;;;;;;4.60;4.20;;;;;;;23.70;71.90;101172.63;5047695;27;102516;-50
2021/07/28 05:17:01;;;;;;;5.32;4.47;;;;;;;23.70;71.95;101169.84;5047086;27;102469;-50
2021/07/28 05:19:28;;;;;;;4.22;3.67;;;;;;;23.70;71.82;101170.66;5044459;27;102674;-50
2021/07/28 05:21:54;;;;;;;4.35;3.95;;;;;;;23.72;71.98;101167.53;5050110;27;103869;-51
2021/07/28 05:24:22;;;;;;;4.60;4.20;;;;;;;23.71;71.99;101163.94;5051048;27;102244;-50
2021/07/28 05:26:49;;;;;;;4.17;3.87;;;;;;;23.73;71.79;101172.75;5049611;27;102568;-50
2021/07/28 05:29:16;;;;;;;3.85;3.55;;;;;;;23.74;71.72;101168.81;5050021;27;102553;-51
2021/07/28 05:31:42;;;;;;;3.75;3.45;;;;;;;23.75;71.61;101158.50;5051771;27;104024;-50
2021/07/28 05:34:10;;;;;;;4.03;3.65;;;;;;;23.76;71.85;101153.75;5063299;27;103062;-54
2021/07/28 05:36:38;;;;;;;4.35;3.95;;;;;;;23.77;71.61;101160.94;5049306;27;102125;-52
2021/07/28 05:39:04;;;;;;;5.30;4.20;;;;;;;23.77;71.84;101149.81;5055012;27;102134;-51
2021/07/28 05:41:32;;;;;;;4.43;4.03;;;;;;;23.78;71.90;101143.09;5061878;27;105164;-54
2021/07/28 05:43:59;;;;;;;4.20;3.90;;;;;;;23.79;71.67;101139.94;5058110;27;102114;-50
2021/07/28 05:46:25;;;;;;;4.70;4.13;;;;;;;23.80;71.48;101143.53;5045405;27;102478;-51
2021/07/28 05:48:52;;;;;;;4.13;3.78;;;;;;;23.82;71.60;101146.78;5043049;27;102381;-50
2021/07/28 05:51:18;;;;;;;4.45;3.65;;;;;;;23.83;71.65;101148.41;5047973;27;104310;-50
2021/07/28 05:53:45;;;;;;;4.25;3.95;;;;;;;23.83;71.79;101145.63;5050476;27;102636;-50
2021/07/28 05:56:11;;;;;;;3.97;3.58;;;;;;;23.84;71.64;101138.88;5047825;27;102717;-50
2021/07/28 05:58:39;;;;;;;3.65;3.40;;;;;;;23.85;71.76;101146.09;5042054;27;102962;-50
2021/07/28 06:01:05;;;;;;;4.20;3.90;;;;;;;23.86;71.58;101142.13;5046190;27;103849;-49
2021/07/28 06:03:32;;;;;;;3.85;3.55;;;;;;;23.89;71.41;101152.56;5049548;27;102222;-50
2021/07/28 06:05:59;;;;;;;5.28;3.78;;;;;;;23.89;71.52;101141.44;5049388;27;103322;-49
2021/07/28 06:08:26;;;;;;;4.38;4.03;;;;;;;23.90;72.02;101143.06;5048832;27;102161;-50
2021/07/28 06:10:52;;;;;;;3.70;3.40;;;;;;;23.90;71.60;101141.06;5043469;27;103963;-49
2021/07/28 06:13:19;;;;;;;4.20;3.90;;;;;;;23.92;71.62;101140.75;5044121;27;102125;-49
2021/07/28 06:15:48;;;;;;;3.85;3.45;;;;;;;23.93;71.69;101142.34;5034488;27;102575;-50
2021/07/28 06:18:15;;;;;;;4.05;3.75;;;;;;;23.94;71.46;101149.53;5038117;27;102319;-50
2021/07/28 06:20:42;;;;;;;3.97;3.67;;;;;;;23.96;71.57;101141.66;5040988;27;103658;-49
2021/07/28 06:23:08;;;;;;;4.07;3.78;;;;;;;23.97;71.32;101149.63;5044597;27;102229;-49
2021/07/28 06:25:36;;;;;;;10.20;6.32;;;;;;;24.02;71.16;101143.03;5045239;27;103306;-50
2021/07/28 06:28:03;;;;;;;8.55;5.40;;;;;;;24.02;70.95;101134.69;5045585;27;102403;-50
2021/07/28 06:30:30;;;;;;;4.50;4.10;;;;;;;24.03;71.18;101135.50;5044946;27;104229;-49
2021/07/28 06:32:58;;;;;;;4.95;4.22;;;;;;;24.03;71.33;101135.50;5044115;27;102675;-50
2021/07/28 06:35:24;;;;;;;4.57;4.28;;;;;;;24.04;71.23;101123.22;5045517;27;102316;-49
2021/07/28 06:37:52;;;;;;;4.90;4.40;;;;;;;24.03;71.41;101133.53;5049857;27;102222;-49
2021/07/28 06:40:18;;;;;;;4.95;4.55;;;;;;;24.04;71.24;101126.78;5053405;27;104486;-50
2021/07/28 06:42:45;;;;;;;4.82;4.43;;;;;;;24.04;71.42;101126.00;5049600;27;102286;-49
2021/07/28 06:45:12;;;;;;;5.32;4.90;;;;;;;24.05;71.51;101122.84;5048032;27;102587;-49
2021/07/28 06:47:38;;;;;;;4.75;4.35;;;;;;;24.06;71.40;101116.13;5046354;27;102389;-49
2021/07/28 06:50:07;;;;;;;5.20;4.80;;;;;;;24.06;71.33;101121.69;5046280;27;103443;-49
2021/07/28 06:52:35;;;;;;;5.82;5.28;;;;;;;24.06;71.19;101113.34;5038949;27;102327;-49
2021/07/28 06:55:01;;;;;;;4.70;4.30;;;;;;;24.07;71.07;101114.97;5048293;27;102390;-49
2021/07/28 06:57:29;;;;;;;5.00;4.50;;;;;;;24.07;71.12;101114.97;5045799;27;102659;-50
2021/07/28 06:59:57;;;;;;;5.45;4.82;;;;;;;24.10;70.95;101124.59;5037262;27;103675;-49
2021/07/28 07:02:23;;;;;;;5.10;4.70;;;;;;;24.09;71.13;101112.66;5041368;27;102818;-49
2021/07/28 07:04:50;;;;;;;5.47;5.00;;;;;;;24.10;71.05;101111.50;5045896;27;102505;-50
2021/07/28 07:07:20;;;;;;;5.30;4.80;;;;;;;24.11;71.31;101117.84;5046781;27;102694;-49
2021/07/28 07:09:48;;;;;;;5.10;4.70;;;;;;;24.13;71.21;101123.88;5044476;27;104151;-49
2021/07/28 07:12:15;;;;;;;5.30;4.80;;;;;;;24.13;71.04;101115.53;5047684;27;102120;-49
2021/07/28 07:14:42;;;;;;;5.03;4.63;;;;;;;24.14;71.03;101119.94;5049109;27;103225;-49
2021/07/28 07:17:08;;;;;;;5.63;5.13;;;;;;;24.14;70.99;101114.38;5058889;27;102847;-49
2021/07/28 07:19:44;;;;;;;5.43;4.93;;;;;;;24.15;71.09;101122.34;5056904;27;104179;-50
2021/07/28 07:22:10;;;;;;;5.25;4.80;;;;;;;24.15;71.06;101122.34;5054916;27;102176;-50
2021/07/28 07:24:38;;;;;;;4.72;4.35;;;;;;;24.16;71.13;101123.97;5042959;27;102487;-50
2021/07/28 07:27:05;;;;;;;4.70;4.22;;;;;;;24.18;71.04;101118.84;5048193;27;103502;-50
2021/07/28 07:29:33;;;;;;;5.05;4.55;;;;;;;24.18;71.27;101120.84;5049181;27;103930;-49
2021/07/28 07:32:00;;;;;;;5.60;4.97;;;;;;;24.19;71.21;101117.69;5044817;27;102351;-50
2021/07/28 07:34:26;;;;;;;6.15;4.50;;;;;;;24.19;70.81;101117.69;5041688;27;102508;-50
2021/07/28 07:36:54;;;;;;;5.80;4.78;;;;;;;24.19;70.82;101114.91;5046938;27;102550;-49
2021/07/28 07:39:21;;;;;;;5.75;4.57;;;;;;;24.19;71.11;101106.56;5043446;27;104122;-50
2021/07/28 07:41:49;;;;;;;6.88;4.90;;;;;;;24.21;71.20;101120.13;5044122;27;102368;-49
2021/07/28 07:44:16;;;;;;;5.43;4.93;;;;;;;24.22;70.99;101110.63;5042780;27;102501;-49
2021/07/28 07:46:43;;;;;;;5.00;4.55;;;;;;;24.22;70.97;101107.84;5042716;27;102588;-49
2021/07/28 07:49:09;;;;;;;6.93;4.80;;;;;;;24.22;70.83;101116.97;5041532;27;103786;-50
2021/07/28 07:51:36;;;;;;;5.00;4.60;;;;;;;24.23;71.19;101106.66;5041050;27;102315;-50
2021/07/28 07:54:03;;;;;;;5.80;4.63;;;;;;;24.22;71.07;101111.41;5044597;27;102345;-50
2021/07/28 07:56:30;;;;;;;5.03;4.53;;;;;;;24.24;70.96;101119.44;5036385;27;102105;-50
2021/07/28 07:58:58;;;;;;;5.35;4.95;;;;;;;24.25;71.20;101114.66;5047380;27;104151;-49
2021/07/28 08:01:24;;;;;;;5.28;4.88;;;;;;;24.24;70.79;101107.50;5046493;27;102394;-50
2021/07/28 08:03:51;;;;;;;5.45;4.95;;;;;;;24.25;70.59;101111.88;5044120;27;102403;-50
2021/07/28 08:06:18;;;;;;;4.78;4.38;;;;;;;24.25;70.92;101114.66;5047313;27;102244;-50
2021/07/28 08:08:44;;;;;;;7.35;4.85;;;;;;;24.26;70.83;101107.94;5040368;27;103958;-50
2021/07/28 08:11:11;;;;;;;4.80;4.40;;;;;;;24.26;70.72;101105.16;5032761;27;102129;-50
2021/07/28 08:13:39;;;;;;;5.20;4.80;;;;;;;24.27;70.76;101109.53;5036240;27;102140;-50
2021/07/28 08:16:12;;;;;;;5.78;4.78;;;;;;;24.27;70.74;101102.03;5048869;27;102253;-49
2021/07/28 08:18:38;;;;;;;5.40;4.90;;;;;;;24.27;70.99;101115.94;5046356;27;103879;-50
2021/07/28 08:21:06;;;;;;;5.25;4.78;;;;;;;24.28;70.82;101111.19;5047502;27;102602;-49
2021/07/28 08:23:33;;;;;;;5.20;4.70;;;;;;;24.27;70.85;101112.31;5041617;27;102511;-49
2021/07/28 08:25:59;;;;;;;5.03;4.63;;;;;;;24.28;70.95;101105.63;5045629;27;102873;-50
2021/07/28 08:28:26;;;;;;;5.75;4.78;;;;;;;24.28;70.75;101102.84;5049271;27;103908;-49
2021/07/28 08:30:55;;;;;;;5.80;5.25;;;;;;;24.27;71.00;101101.19;5050932;27;103099;-50
2021/07/28 08:33:24;;;;;;;5.25;4.85;;;;;;;24.27;70.88;101104.81;5050497;27;102217;-49
2021/07/28 08:35:50;;;;;;;5.25;4.85;;;;;;;24.28;70.88;101100.88;5052040;27;102317;-50
2021/07/28 08:38:20;;;;;;;5.72;5.13;;;;;;;24.29;70.96;101115.56;5047824;27;103938;-49
2021/07/28 08:40:50;;;;;;;5.72;5.22;;;;;;;24.28;71.00;101120.34;5045463;27;103136;-50
2021/07/28 08:43:19;;;;;;;5.25;4.85;;;;;;;24.29;70.93;101110.00;5041814;27;102482;-49
2021/07/28 08:45:47;;;;;;;5.35;4.95;;;;;;;24.28;70.85;101119.53;5045584;27;102275;-50
2021/07/28 08:48:16;;;;;;;5.37;4.87;;;;;;;24.29;70.88;101116.38;5046883;27;103882;-49
2021/07/28 08:50:47;;;;;;;5.68;5.18;;;;;;;24.29;71.04;101108.03;5049438;27;102300;-50
2021/07/28 08:53:13;;;;;;;5.07;4.68;;;;;;;24.31;70.64;101116.84;5048007;27;103612;-50
2021/07/28 08:55:40;;;;;;;5.50;5.10;;;;;;;24.30;70.91;101112.44;5048171;27;102144;-50
2021/07/28 08:58:08;;;;;;;5.57;5.07;;;;;;;24.29;71.03;101098.88;5054130;27;103740;-49
2021/07/28 09:00:41;;;;;;;5.53;5.03;;;;;;;24.30;70.80;101117.19;5045806;27;102111;-50
2021/07/28 09:03:07;;;;;;;5.60;5.03;;;;;;;24.29;70.84;101119.16;5034576;27;102361;-49
2021/07/28 09:05:38;;;;;;;6.05;5.55;;;;;;;24.30;70.83;101122.75;5048472;27;102776;-50
2021/07/28 09:08:06;;;;;;;5.80;5.30;;;;;;;24.29;70.76;101116.38;5047764;27;103732;-49
2021/07/28 09:10:33;;;;;;;5.97;5.47;;;;;;;24.30;70.97;101117.19;5043962;27;102484;-49
2021/07/28 09:12:59;;;;;;;5.53;5.03;;;;;;;24.29;70.93;101113.59;5040543;27;102147;-49
2021/07/28 09:15:37;;;;;;;5.85;5.35;;;;;;;24.30;70.93;101106.06;5048758;27;102207;-49
2021/07/28 09:18:31;;;;;;;6.07;5.53;;;;;;;24.30;71.01;101114.41;5038057;27;103667;-49
2021/07/28 09:20:58;;;;;;;6.18;5.68;;;;;;;24.29;70.86;101102.47;5051909;27;103629;-50
2021/07/28 09:23:38;;;;;;;6.35;5.50;;;;;;;24.30;71.14;101100.50;5062163;27;102440;-50
2021/07/28 09:26:39;;;;;;;6.45;5.85;;;;;;;24.31;70.98;101096.56;5051947;27;102345;-50
2021/07/28 09:29:09;;;;;;;6.00;5.50;;;;;;;24.30;70.79;101100.50;5038244;27;103891;-50
2021/07/28 09:31:40;;;;;;;6.40;5.80;;;;;;;24.29;70.98;101094.13;5047056;27;102829;-50
2021/07/28 09:34:34;;;;;;;6.20;5.60;;;;;;;24.30;70.83;101094.94;5047313;27;102516;-50
2021/07/28 09:37:04;;;;;;;6.40;5.80;;;;;;;24.32;70.95;101103.75;5047810;27;104679;-49
2021/07/28 09:39:34;;;;;;;5.90;5.40;;;;;;;24.31;70.82;101096.56;5052024;27;103909;-49
2021/07/28 09:42:08;;;;;;;6.45;5.63;;;;;;;24.31;70.94;101088.22;5047015;27;102335;-49
2021/07/28 09:44:35;;;;;;;6.70;6.10;;;;;;;24.32;70.88;101081.50;5048737;27;102110;-50
2021/07/28 09:47:07;;;;;;;6.53;6.03;;;;;;;24.31;70.72;101079.88;5050373;27;102759;-49
2021/07/28 09:49:34;;;;;;;6.90;6.22;;;;;;;24.31;70.94;101074.31;5043278;27;103979;-50
2021/07/28 09:52:22;;;;;;;6.28;5.78;;;;;;;24.29;70.83;101083.00;5047811;27;102486;-50
2021/07/28 09:54:52;;;;;;;6.25;5.75;;;;;;;24.30;70.83;101079.06;5043369;27;102661;-49
2021/07/28 09:57:20;;;;;;;6.50;5.90;;;;;;;24.30;70.84;101083.81;5045804;27;102238;-49
2021/07/28 09:59:52;;;;;;;6.95;6.40;;;;;;;24.31;70.89;101077.09;5049890;27;103945;-49
2021/07/28 10:02:21;;;;;;;7.60;6.45;;;;;;;24.31;70.85;101080.69;5048297;27;102328;-49
2021/07/28 10:04:49;;;;;;;6.70;6.20;;;;;;;24.32;70.88;101087.84;5051225;27;102064;-49
2021/07/28 10:07:17;;;;;;;7.67;7.03;;;;;;;24.32;70.84;101076.72;5052891;27;102410;-50
2021/07/28 10:09:51;;;;;;;6.63;6.13;;;;;;;24.33;70.72;101077.53;5041942;27;103860;-50
2021/07/28 10:12:19;;;;;;;7.47;6.78;;;;;;;24.32;70.84;101071.16;5046106;27;102413;-50
2021/07/28 10:14:52;;;;;;;6.88;6.25;;;;;;;24.31;70.74;101075.13;5043882;27;102427;-49
2021/07/28 10:17:18;;;;;;;7.88;7.18;;;;;;;24.32;70.91;101070.38;5047347;27;102734;-50
2021/07/28 10:19:47;;;;;;;7.03;6.43;;;;;;;24.32;70.68;101062.03;5044648;27;103883;-50
2021/07/28 10:22:13;;;;;;;8.00;7.30;;;;;;;24.32;71.11;101067.59;5047118;27;102222;-49
2021/07/28 10:24:42;;;;;;;7.22;6.53;;;;;;;24.33;71.21;101066.41;5046739;27;102468;-50
2021/07/28 10:27:10;;;;;;;7.45;6.85;;;;;;;24.32;70.87;101065.59;5040013;27;102363;-49
2021/07/28 10:29:37;;;;;;;7.75;7.00;;;;;;;24.33;70.93;101066.41;5038715;27;103871;-49
2021/07/28 10:32:04;;;;;;;7.20;6.60;;;;;;;24.33;70.91;101053.31;5040974;27;102288;-50
2021/07/28 10:34:32;;;;;;;7.57;6.93;;;;;;;24.33;70.87;101061.66;5040549;27;102602;-49
2021/07/28 10:37:04;;;;;;;7.45;6.82;;;;;;;24.33;70.95;101047.75;5048160;27;102065;-49
2021/07/28 10:39:39;;;;;;;7.80;7.10;;;;;;;24.33;70.96;101058.06;5048142;27;104065;-50
2021/07/28 10:42:07;;;;;;;7.85;7.22;;;;;;;24.33;70.92;101044.16;5051878;27;102502;-49
2021/07/28 10:45:01;;;;;;;8.02;7.32;;;;;;;24.32;70.95;101037.78;5050572;27;102584;-50
2021/07/28 10:47:41;;;;;;;7.82;7.13;;;;;;;24.32;71.15;101039.78;5047207;27;102589;-53
2021/07/28 10:50:26;;;;;;;8.73;7.93;;;;;;;24.33;70.93;101041.38;5044828;27;103997;-53
2021/07/28 10:52:54;;;;;;;7.88;7.28;;;;;;;24.34;70.95;101034.66;5039270;27;102278;-50
2021/07/28 10:55:23;;;;;;;7.65;7.03;;;;;;;24.33;71.07;101038.59;5052183;27;102438;-49
2021/07/28 10:58:20;;;;;;;7.95;7.35;;;;;;;24.34;70.90;101031.88;5050110;27;102377;-55
2021/07/28 11:00:55;;;;;;;7.50;6.90;;;;;;;24.34;70.82;101034.66;5040939;27;103908;-50
2021/07/28 11:03:29;;;;;;;8.18;7.47;;;;;;;24.34;70.88;101035.47;5049546;27;103241;-49
2021/07/28 11:06:28;;;;;;;8.23;7.57;;;;;;;24.33;71.19;101033.03;5040551;27;101988;-49
2021/07/28 11:09:15;;;;;;;8.20;7.50;;;;;;;24.32;71.12;101029.44;5037685;27;102403;-50
2021/07/28 11:11:47;;;;;;;8.52;7.82;;;;;;;24.32;70.94;101035.00;5042183;27;103903;-50
2021/07/28 11:14:14;;;;;;;8.60;7.90;;;;;;;24.32;71.23;101025.88;5049644;27;102232;-50
2021/07/28 11:16:51;;;;;;;8.60;7.80;;;;;;;24.32;71.22;101020.31;5047205;27;102409;-50
2021/07/28 11:19:17;;;;;;;9.55;8.60;;;;;;;24.31;70.93;101016.72;5036618;27;102833;-50
2021/07/28 11:21:44;;;;;;;8.82;8.02;;;;;;;24.32;71.17;101006.41;5039333;27;103669;-50
2021/07/28 11:24:11;;;;;;;8.63;7.85;;;;;;;24.31;71.26;101013.13;5037584;27;102177;-49
2021/07/28 11:26:41;;;;;;;8.50;7.78;;;;;;;24.31;71.05;101013.94;5043498;27;102371;-50